Time;durP1;ratioP1;P1;durP2;ratioP2;P2;SDS_P1;SDS_P2;PMS_P1;PMS_P2;Temp;Humidity;BMP_temperature;BMP_pressure;BME280_temperature;BME280_humidity;BME280_pressure;Samples;Min_cycle;Max_cycle;Signal;HPM_P1;HPM_P2
2023/03/13 00:01:03;;;;;;;541.37;111.47;;;6.40;99.90;;;;;;5091256;28;20295;-52
2023/03/13 00:03:31;;;;;;;813.70;168.00;;;6.40;99.90;;;;;;5090774;28;20844;-52
2023/03/13 00:05:59;;;;;;;800.47;150.13;;;6.50;99.90;;;;;;5091152;28;20289;-51
2023/03/13 00:08:29;;;;;;;600.30;107.17;;;6.40;99.90;;;;;;5091546;28;20300;-53
2023/03/13 00:10:57;;;;;;;885.93;192.97;;;6.40;99.90;;;;;;5091319;28;20287;-52
2023/03/13 00:13:25;;;;;;;1984.50;287.30;;;6.40;99.90;;;;;;5091090;28;20248;-53
2023/03/13 00:16:01;;;;;;;507.60;138.47;;;6.40;99.90;;;;;;5091089;28;20249;-52
2023/03/13 00:18:30;;;;;;;375.90;109.63;;;6.40;99.90;;;;;;5091087;28;20274;-52
2023/03/13 00:20:59;;;;;;;582.53;117.67;;;6.40;99.90;;;;;;5091259;28;20219;-53
2023/03/13 00:23:27;;;;;;;1173.27;219.83;;;6.40;99.90;;;;;;5090576;28;20311;-52
2023/03/13 00:25:58;;;;;;;1999.90;488.40;;;6.40;99.90;;;;;;5091049;28;20298;-52
2023/03/13 00:28:29;;;;;;;475.93;93.07;;;6.50;99.90;;;;;;5090797;28;20215;-52
2023/03/13 00:31:05;;;;;;;558.37;143.40;;;6.60;99.90;;;;;;5091122;28;20295;-51
2023/03/13 00:33:33;;;;;;;1358.63;236.60;;;6.60;99.90;;;;;;5069014;28;20233;-52
2023/03/13 00:36:03;;;;;;;361.70;97.93;;;6.60;99.90;;;;;;5070711;28;20291;-52
2023/03/13 00:38:31;;;;;;;700.03;148.90;;;6.60;99.90;;;;;;5070772;28;20292;-53
2023/03/13 00:41:01;;;;;;;1470.93;293.00;;;6.60;99.90;;;;;;5085342;28;20210;-53
2023/03/13 00:43:29;;;;;;;1505.57;238.77;;;6.60;99.90;;;;;;5090726;28;20322;-53
2023/03/13 00:45:58;;;;;;;698.37;140.60;;;6.60;99.90;;;;;;5091016;28;20238;-51
2023/03/13 00:48:27;;;;;;;334.37;73.73;;;6.60;99.90;;;;;;5090936;28;20208;-53
2023/03/13 00:50:56;;;;;;;378.27;94.73;;;6.60;99.90;;;;;;5090493;28;20645;-52
2023/03/13 00:53:24;;;;;;;319.23;79.87;;;6.60;99.90;;;;;;5089981;28;21002;-52
2023/03/13 00:55:53;;;;;;;509.70;111.83;;;6.60;99.90;;;;;;5090562;28;20206;-52
2023/03/13 00:58:22;;;;;;;723.83;110.07;;;6.60;99.90;;;;;;5069979;28;20763;-52
2023/03/13 01:00:50;;;;;;;289.30;68.90;;;6.60;99.90;;;;;;5070258;28;20299;-52
2023/03/13 01:03:19;;;;;;;378.87;87.57;;;6.60;99.90;;;;;;5069697;28;20243;-52
2023/03/13 01:05:57;;;;;;;1875.57;286.67;;;6.60;99.90;;;;;;5083534;28;20273;-53
2023/03/13 01:08:25;;;;;;;1999.90;399.73;;;6.60;99.90;;;;;;5089996;28;20314;-52
2023/03/13 01:10:58;;;;;;;1999.90;435.73;;;6.60;99.90;;;;;;5089194;28;20208;-52
2023/03/13 01:13:26;;;;;;;1270.70;162.13;;;6.60;99.90;;;;;;5089586;28;20231;-53
2023/03/13 01:15:54;;;;;;;1790.13;354.27;;;6.60;99.90;;;;;;5089978;28;20224;-53
2023/03/13 01:18:23;;;;;;;339.33;84.20;;;6.60;99.90;;;;;;5089793;28;20844;-52
2023/03/13 01:20:51;;;;;;;1303.43;175.43;;;6.60;99.90;;;;;;5089726;28;20665;-52
2023/03/13 01:23:20;;;;;;;1418.83;232.53;;;6.60;99.90;;;;;;5089541;28;20724;-53
2023/03/13 01:25:48;;;;;;;215.63;63.80;;;6.60;99.90;;;;;;5089330;28;20291;-53
2023/03/13 01:28:16;;;;;;;1043.87;155.57;;;6.60;99.90;;;;;;5089704;28;20315;-52
2023/03/13 01:30:44;;;;;;;1999.90;372.17;;;6.70;99.90;;;;;;5089392;28;20734;-53
2023/03/13 01:33:12;;;;;;;1135.17;203.60;;;6.60;99.90;;;;;;5089557;28;20228;-52
2023/03/13 01:35:40;;;;;;;1707.87;335.47;;;6.70;99.90;;;;;;5089440;28;20215;-53
2023/03/13 01:38:08;;;;;;;1999.90;271.57;;;6.70;99.90;;;;;;5089402;28;21042;-52
2023/03/13 01:40:41;;;;;;;1304.63;230.83;;;6.60;99.90;;;;;;5089860;28;20287;-53
2023/03/13 01:43:18;;;;;;;469.47;111.70;;;6.60;99.90;;;;;;5088993;28;20251;-52
2023/03/13 01:46:00;;;;;;;1913.90;348.60;;;6.70;99.90;;;;;;5089572;28;20212;-52
2023/03/13 01:48:35;;;;;;;359.87;89.20;;;6.70;99.90;;;;;;5068959;28;20677;-52
2023/03/13 01:51:08;;;;;;;409.20;74.83;;;6.70;99.90;;;;;;5069155;28;20189;-53
2023/03/13 01:53:39;;;;;;;659.03;134.73;;;6.70;99.90;;;;;;5083911;28;20219;-53
2023/03/13 01:56:17;;;;;;;1170.73;200.30;;;6.70;99.90;;;;;;5089384;28;20251;-53
2023/03/13 01:58:45;;;;;;;1369.83;262.13;;;6.80;99.90;;;;;;5089379;28;20306;-52
2023/03/13 02:01:15;;;;;;;727.67;177.43;;;6.80;99.90;;;;;;5089302;28;20214;-52
2023/03/13 02:03:43;;;;;;;842.33;169.47;;;6.80;99.90;;;;;;5089080;28;20235;-52
2023/03/13 02:06:11;;;;;;;348.43;75.53;;;6.80;99.90;;;;;;5088877;28;20269;-53
2023/03/13 02:08:44;;;;;;;631.27;126.47;;;6.90;99.90;;;;;;5089252;28;20283;-53
2023/03/13 02:11:22;;;;;;;39.27;20.27;;;6.90;99.90;;;;;;5088749;28;20251;-52
2023/03/13 02:13:51;;;;;;;461.43;131.47;;;6.90;99.90;;;;;;5089172;28;20310;-52
2023/03/13 02:16:21;;;;;;;666.60;179.77;;;6.90;99.90;;;;;;5088346;28;20295;-52
2023/03/13 02:18:49;;;;;;;480.10;122.37;;;7.00;99.90;;;;;;5089095;28;20754;-52
2023/03/13 02:21:31;;;;;;;986.50;136.47;;;7.00;99.90;;;;;;5089061;28;20247;-53
2023/03/13 02:24:06;;;;;;;337.27;77.47;;;7.00;99.90;;;;;;5093370;28;20376;-53
2023/03/13 02:26:36;;;;;;;951.00;193.17;;;7.00;99.90;;;;;;5093277;28;20732;-53
2023/03/13 02:29:04;;;;;;;1133.50;181.90;;;7.00;99.90;;;;;;5092677;28;20219;-52
2023/03/13 02:31:32;;;;;;;1516.67;285.53;;;7.00;99.90;;;;;;5093243;28;20287;-52
2023/03/13 02:34:01;;;;;;;332.37;74.53;;;7.00;99.90;;;;;;5092229;28;20247;-52
2023/03/13 02:36:30;;;;;;;1063.33;189.00;;;7.00;99.90;;;;;;5092788;28;20232;-53
2023/03/13 02:39:02;;;;;;;791.33;144.10;;;7.00;99.90;;;;;;5093146;28;20239;-52
2023/03/13 02:41:31;;;;;;;1493.70;200.90;;;7.00;99.90;;;;;;5092720;28;20269;-52
2023/03/13 02:44:00;;;;;;;1999.90;421.63;;;7.00;99.90;;;;;;5092642;28;20335;-52
2023/03/13 02:46:28;;;;;;;463.83;84.90;;;7.10;99.90;;;;;;5092863;28;20303;-52
2023/03/13 02:48:58;;;;;;;451.33;95.90;;;7.10;99.90;;;;;;5092681;28;20277;-52
2023/03/13 02:51:29;;;;;;;705.60;155.80;;;7.00;99.90;;;;;;5092741;28;20235;-53
2023/03/13 02:54:00;;;;;;;278.10;62.70;;;7.00;99.90;;;;;;5092197;28;20303;-52
2023/03/13 02:56:31;;;;;;;936.53;185.27;;;7.00;99.90;;;;;;5092704;28;20243;-52
2023/03/13 02:59:00;;;;;;;741.80;108.67;;;7.00;99.90;;;;;;5092733;28;20675;-53
2023/03/13 03:01:28;;;;;;;428.97;87.87;;;7.00;99.90;;;;;;5092272;28;20219;-53
2023/03/13 03:03:56;;;;;;;367.90;75.03;;;7.00;99.90;;;;;;5092063;28;20318;-52
2023/03/13 03:06:24;;;;;;;1090.07;238.77;;;7.00;99.90;;;;;;5092048;28;20242;-52
2023/03/13 03:08:52;;;;;;;1999.90;279.57;;;7.00;99.90;;;;;;5092170;28;20251;-52
2023/03/13 03:11:20;;;;;;;1999.90;452.87;;;7.00;99.90;;;;;;5092203;28;20294;-53
2023/03/13 03:13:48;;;;;;;986.80;123.30;;;7.00;99.90;;;;;;5091785;28;20258;-52
2023/03/13 03:16:18;;;;;;;1999.90;315.77;;;7.00;99.90;;;;;;5092178;28;20224;-52
2023/03/13 03:18:46;;;;;;;1553.97;234.50;;;7.00;99.90;;;;;;5091924;28;20204;-52
2023/03/13 03:21:14;;;;;;;1933.30;290.43;;;7.00;99.90;;;;;;5091932;28;20626;-53
2023/03/13 03:23:42;;;;;;;1999.90;606.40;;;7.00;99.90;;;;;;5091546;28;20264;-53
2023/03/13 03:26:10;;;;;;;1999.90;271.73;;;7.00;99.90;;;;;;5091712;28;20205;-52
2023/03/13 03:28:38;;;;;;;1999.90;468.93;;;7.00;99.90;;;;;;5092158;28;20299;-52
2023/03/13 03:31:07;;;;;;;1999.90;393.23;;;7.00;99.90;;;;;;5091714;28;20766;-52
2023/03/13 03:33:37;;;;;;;1999.90;505.73;;;7.00;99.90;;;;;;5090510;28;20898;-53
2023/03/13 03:36:08;;;;;;;1999.90;259.23;;;7.00;99.90;;;;;;5092037;28;20311;-53
2023/03/13 03:38:36;;;;;;;1999.90;258.23;;;7.00;99.90;;;;;;5092247;28;20211;-53
2023/03/13 03:41:04;;;;;;;1013.23;117.60;;;7.10;99.90;;;;;;5092126;28;20299;-52
2023/03/13 03:43:32;;;;;;;1999.90;376.00;;;7.00;99.90;;;;;;5091654;28;20231;-52
2023/03/13 03:46:01;;;;;;;1999.90;287.23;;;7.10;99.90;;;;;;5092103;28;20197;-53
2023/03/13 03:48:29;;;;;;;1777.80;204.93;;;7.10;99.90;;;;;;5091400;28;20612;-53
2023/03/13 03:50:59;;;;;;;1213.43;147.33;;;7.10;99.90;;;;;;5091693;28;20208;-52
2023/03/13 03:53:27;;;;;;;1999.90;222.43;;;7.10;99.90;;;;;;5091061;28;20228;-52
2023/03/13 03:55:55;;;;;;;1719.17;229.87;;;7.10;99.90;;;;;;5091446;28;20861;-51
2023/03/13 03:58:23;;;;;;;1999.90;461.07;;;7.20;99.90;;;;;;5091598;28;20627;-53
2023/03/13 04:00:51;;;;;;;1852.97;209.97;;;7.10;99.90;;;;;;5091277;28;20208;-52
2023/03/13 04:03:19;;;;;;;1973.03;237.63;;;7.20;99.90;;;;;;5091349;28;20274;-51
2023/03/13 04:05:47;;;;;;;1999.90;290.00;;;7.20;99.90;;;;;;5091558;28;20250;-52
2023/03/13 04:08:18;;;;;;;1999.90;279.53;;;7.20;99.90;;;;;;5091467;28;20201;-51
2023/03/13 04:10:46;;;;;;;1999.90;453.37;;;7.20;99.90;;;;;;5091757;28;20296;-52
2023/03/13 04:13:14;;;;;;;1999.90;258.97;;;7.20;99.90;;;;;;5090678;28;20310;-52
2023/03/13 04:15:42;;;;;;;1999.90;349.10;;;7.20;99.90;;;;;;5090996;28;20701;-53
2023/03/13 04:18:10;;;;;;;1999.90;321.50;;;7.30;99.90;;;;;;5091010;28;20215;-52
2023/03/13 04:20:38;;;;;;;1999.90;454.03;;;7.30;99.90;;;;;;5090636;28;20748;-52
2023/03/13 04:23:06;;;;;;;1999.90;360.10;;;7.30;99.90;;;;;;5090531;28;20315;-51
2023/03/13 04:25:36;;;;;;;1999.90;240.57;;;7.40;99.90;;;;;;5090689;28;20740;-53
2023/03/13 04:28:04;;;;;;;1999.90;448.80;;;7.40;99.90;;;;;;5091093;28;20295;-52
2023/03/13 04:30:32;;;;;;;1999.90;479.73;;;7.40;99.90;;;;;;5090314;28;20202;-53
2023/03/13 04:33:00;;;;;;;1999.90;321.20;;;7.40;99.90;;;;;;5090603;28;20339;-53
2023/03/13 04:35:28;;;;;;;1999.90;411.83;;;7.40;99.90;;;;;;5090768;28;20665;-53
2023/03/13 04:37:56;;;;;;;1999.90;467.40;;;7.40;99.90;;;;;;5090527;28;20208;-52
2023/03/13 04:40:24;;;;;;;1999.90;325.80;;;7.40;99.90;;;;;;5090168;28;20210;-52
2023/03/13 04:42:53;;;;;;;1999.90;312.97;;;7.40;99.90;;;;;;5090317;28;20314;-52
2023/03/13 04:45:21;;;;;;;1999.90;246.67;;;7.50;99.90;;;;;;5090518;28;20291;-52
2023/03/13 04:47:49;;;;;;;1820.57;216.30;;;7.50;99.90;;;;;;5090359;28;20196;-53
2023/03/13 04:50:17;;;;;;;1999.90;267.70;;;7.50;99.90;;;;;;5090051;28;20288;-52
2023/03/13 04:52:45;;;;;;;1733.27;156.70;;;7.50;99.90;;;;;;5090083;28;20255;-51
2023/03/13 04:55:16;;;;;;;1999.90;604.13;;;7.60;99.90;;;;;;5090269;28;20212;-52
2023/03/13 04:57:44;;;;;;;1999.90;449.03;;;7.60;99.90;;;;;;5089991;28;20206;-52
2023/03/13 05:00:14;;;;;;;1999.90;288.27;;;7.60;99.90;;;;;;5089695;28;20228;-52
2023/03/13 05:02:42;;;;;;;1931.10;187.00;;;7.70;99.90;;;;;;5089213;28;20688;-53
2023/03/13 05:05:10;;;;;;;1999.90;482.17;;;7.70;99.90;;;;;;5089632;28;20307;-52
2023/03/13 05:07:38;;;;;;;1999.90;433.17;;;7.80;99.90;;;;;;5089257;28;20200;-51
2023/03/13 05:10:07;;;;;;;1999.90;551.03;;;7.80;99.90;;;;;;5090335;28;20247;-52
2023/03/13 05:12:35;;;;;;;950.83;119.07;;;7.80;99.90;;;;;;5089546;28;20240;-52
2023/03/13 05:15:03;;;;;;;1999.90;412.33;;;7.80;99.90;;;;;;5090167;28;20673;-53
2023/03/13 05:17:33;;;;;;;1999.90;413.10;;;7.90;99.90;;;;;;5090164;28;20295;-53
2023/03/13 05:20:01;;;;;;;1999.90;331.27;;;7.90;99.90;;;;;;5089351;28;20234;-52
2023/03/13 05:22:29;;;;;;;1999.90;427.43;;;7.90;99.90;;;;;;5086882;28;20661;-53
2023/03/13 05:24:57;;;;;;;1999.90;379.57;;;7.90;99.90;;;;;;5089478;28;20208;-52
2023/03/13 05:27:25;;;;;;;1999.90;366.93;;;8.00;99.90;;;;;;5089749;28;20200;-53
2023/03/13 05:29:53;;;;;;;1897.50;202.03;;;8.00;99.90;;;;;;5089702;28;20283;-52
2023/03/13 05:32:21;;;;;;;1999.90;511.90;;;7.90;99.90;;;;;;5088819;28;20327;-52
2023/03/13 05:34:50;;;;;;;1999.90;350.07;;;8.00;99.90;;;;;;5088930;28;20773;-52
2023/03/13 05:37:18;;;;;;;1999.90;359.27;;;8.00;99.90;;;;;;5089226;28;20220;-53
2023/03/13 05:39:46;;;;;;;1918.57;230.20;;;8.00;99.90;;;;;;5089393;28;20255;-52
2023/03/13 05:42:14;;;;;;;1278.80;163.93;;;8.00;99.90;;;;;;5086266;28;20725;-52
2023/03/13 05:44:43;;;;;;;1396.93;148.87;;;8.00;99.90;;;;;;5086451;28;20292;-53
2023/03/13 05:47:11;;;;;;;1240.80;145.40;;;8.10;99.90;;;;;;5084669;28;20196;-52
2023/03/13 05:49:39;;;;;;;1999.90;239.40;;;8.10;99.90;;;;;;5088772;28;20197;-52
2023/03/13 05:52:08;;;;;;;1999.90;249.73;;;8.10;99.90;;;;;;5089103;28;20315;-51
2023/03/13 05:54:37;;;;;;;1999.90;490.47;;;8.10;99.90;;;;;;5088162;28;20270;-52
2023/03/13 05:57:05;;;;;;;1999.90;334.03;;;8.10;99.90;;;;;;5088674;28;20222;-53
2023/03/13 05:59:33;;;;;;;1999.90;469.60;;;8.20;99.90;;;;;;5088628;28;20261;-52
2023/03/13 06:02:01;;;;;;;1958.13;205.80;;;8.10;99.90;;;;;;5088530;28;20350;-52
2023/03/13 06:04:29;;;;;;;1999.90;308.80;;;8.20;99.90;;;;;;5088304;28;20335;-53
2023/03/13 06:06:57;;;;;;;1999.90;261.87;;;8.10;99.90;;;;;;5087915;28;20680;-53
2023/03/13 06:09:26;;;;;;;1999.90;482.13;;;8.20;99.90;;;;;;5089191;28;20582;-53
2023/03/13 06:11:55;;;;;;;1999.90;282.17;;;8.20;99.90;;;;;;5087189;28;20226;-53
2023/03/13 06:14:23;;;;;;;1999.90;298.67;;;8.30;99.90;;;;;;5088140;28;20290;-53
2023/03/13 06:16:51;;;;;;;1999.90;348.27;;;8.30;99.90;;;;;;5087790;28;20310;-53
2023/03/13 06:19:19;;;;;;;1999.90;432.00;;;8.30;99.90;;;;;;5088611;28;20208;-53
2023/03/13 06:21:47;;;;;;;1999.90;371.00;;;8.20;99.90;;;;;;5088020;28;20204;-53
2023/03/13 06:24:15;;;;;;;1980.80;221.33;;;8.30;99.90;;;;;;5088926;28;20204;-53
2023/03/13 06:26:44;;;;;;;1999.90;383.57;;;8.30;99.90;;;;;;5087661;28;20284;-54
2023/03/13 06:29:12;;;;;;;1999.90;271.20;;;8.30;99.90;;;;;;5088739;28;21027;-52
2023/03/13 06:31:40;;;;;;;1999.90;328.23;;;8.40;99.90;;;;;;5087723;28;20295;-54
2023/03/13 06:34:10;;;;;;;1989.90;495.70;;;8.30;99.90;;;;;;5089033;28;20257;-53
2023/03/13 06:36:38;;;;;;;1999.90;462.73;;;8.40;99.90;;;;;;5087707;28;20309;-54
2023/03/13 06:39:07;;;;;;;1999.90;449.83;;;8.40;99.90;;;;;;5088670;28;20250;-53
2023/03/13 06:41:35;;;;;;;1999.90;293.23;;;8.30;99.90;;;;;;5087855;28;20204;-53
2023/03/13 06:44:05;;;;;;;1999.90;276.47;;;8.40;99.90;;;;;;5088552;28;20216;-52
2023/03/13 06:46:33;;;;;;;1999.90;422.63;;;8.40;99.90;;;;;;5087494;28;20287;-53
2023/03/13 06:49:03;;;;;;;1886.93;226.37;;;8.40;99.90;;;;;;5088727;28;20216;-51
2023/03/13 06:51:32;;;;;;;1462.10;174.03;;;8.40;99.90;;;;;;5087846;28;20222;-52
2023/03/13 06:54:01;;;;;;;1999.90;277.67;;;8.50;99.90;;;;;;5088812;28;20319;-53
2023/03/13 06:56:29;;;;;;;1371.03;165.73;;;8.50;99.90;;;;;;5087576;28;20601;-52
2023/03/13 06:58:57;;;;;;;1999.90;292.17;;;8.50;99.90;;;;;;5088443;28;20307;-53
2023/03/13 07:01:28;;;;;;;1999.90;426.83;;;8.50;99.90;;;;;;5087551;28;20204;-53
2023/03/13 07:03:56;;;;;;;1895.80;188.27;;;8.60;99.90;;;;;;5087977;28;20329;-53
2023/03/13 07:06:25;;;;;;;1987.43;215.13;;;8.60;99.90;;;;;;5088131;28;20231;-53
2023/03/13 07:08:53;;;;;;;1685.30;185.20;;;8.60;99.90;;;;;;5088492;28;20204;-52
2023/03/13 07:11:21;;;;;;;1999.90;373.80;;;8.70;99.90;;;;;;5092114;28;20327;-53
2023/03/13 07:13:49;;;;;;;1093.33;105.20;;;8.70;99.90;;;;;;5091103;28;20220;-52
2023/03/13 07:16:17;;;;;;;1804.40;215.43;;;8.70;99.90;;;;;;5092154;28;20259;-52
2023/03/13 07:18:47;;;;;;;1077.13;99.07;;;8.70;99.90;;;;;;5091536;28;20314;-53
2023/03/13 07:21:15;;;;;;;1472.03;174.70;;;8.70;99.90;;;;;;5091704;28;20641;-53
2023/03/13 07:23:43;;;;;;;1670.60;183.63;;;8.80;99.90;;;;;;5091346;28;20808;-53
2023/03/13 07:26:13;;;;;;;1079.90;87.57;;;8.90;99.90;;;;;;5091709;28;20844;-53
2023/03/13 07:28:41;;;;;;;1999.90;309.20;;;8.90;99.90;;;;;;5091458;28;20200;-53
2023/03/13 07:31:12;;;;;;;1999.90;305.53;;;8.80;99.90;;;;;;5091285;28;20702;-54
2023/03/13 07:33:41;;;;;;;1057.10;151.53;;;8.90;99.90;;;;;;5088663;28;20228;-52
2023/03/13 07:36:12;;;;;;;1999.90;368.80;;;8.90;99.90;;;;;;5084589;28;20203;-53
2023/03/13 07:38:42;;;;;;;1999.90;308.33;;;8.90;99.90;;;;;;5090745;28;20227;-53
2023/03/13 07:41:12;;;;;;;1999.90;321.70;;;9.00;99.90;;;;;;5091062;28;20204;-53
2023/03/13 07:43:41;;;;;;;1999.90;267.27;;;8.90;99.90;;;;;;5090545;28;20319;-53
2023/03/13 07:46:12;;;;;;;1999.90;530.73;;;8.90;99.90;;;;;;5083949;28;20254;-53
2023/03/13 07:48:42;;;;;;;1999.90;372.23;;;9.00;99.90;;;;;;5079519;28;20643;-52
2023/03/13 07:51:15;;;;;;;1999.90;382.77;;;9.00;99.90;;;;;;5090740;28;20586;-52
2023/03/13 07:53:43;;;;;;;1999.90;273.10;;;9.00;99.90;;;;;;5090442;28;20269;-53
2023/03/13 07:56:12;;;;;;;1999.90;236.77;;;9.10;99.90;;;;;;5090874;28;20291;-52
2023/03/13 07:58:41;;;;;;;1999.90;250.50;;;9.10;99.90;;;;;;5090158;28;20980;-53
2023/03/13 08:01:10;;;;;;;1999.90;286.47;;;9.10;99.90;;;;;;5091365;28;20224;-52
2023/03/13 08:03:40;;;;;;;1999.90;217.20;;;9.10;99.90;;;;;;5089879;28;20256;-52
2023/03/13 08:06:10;;;;;;;1999.90;232.40;;;9.20;99.90;;;;;;5090843;28;20279;-53
2023/03/13 08:08:39;;;;;;;1899.57;219.17;;;9.10;99.90;;;;;;5089736;28;20291;-53
2023/03/13 08:11:10;;;;;;;1999.90;280.43;;;9.20;99.90;;;;;;5090778;28;20235;-53
2023/03/13 08:13:39;;;;;;;1999.90;261.23;;;9.20;99.90;;;;;;5090540;28;20232;-52
2023/03/13 08:16:09;;;;;;;1999.90;296.40;;;9.30;99.90;;;;;;5090430;28;20207;-53
2023/03/13 08:18:41;;;;;;;1999.90;279.90;;;9.30;99.90;;;;;;5090009;28;20220;-53
2023/03/13 08:21:12;;;;;;;1999.90;307.77;;;9.30;99.90;;;;;;5090044;28;20294;-53
2023/03/13 08:23:42;;;;;;;1999.90;267.07;;;9.40;99.90;;;;;;5090474;28;20284;-54
2023/03/13 08:26:12;;;;;;;1999.90;255.47;;;9.40;99.90;;;;;;5090712;28;20199;-54
2023/03/13 08:28:41;;;;;;;1999.90;266.87;;;9.40;99.90;;;;;;5090728;28;20253;-53
2023/03/13 08:31:11;;;;;;;1079.10;131.20;;;9.50;99.90;;;;;;5090140;28;20204;-53
2023/03/13 08:33:40;;;;;;;1999.90;252.07;;;9.60;99.90;;;;;;5090524;28;20806;-54
2023/03/13 08:36:13;;;;;;;1999.90;285.67;;;9.60;99.90;;;;;;5089751;28;20737;-51
2023/03/13 08:38:43;;;;;;;1457.07;118.30;;;9.70;99.90;;;;;;5090874;28;20208;-53
2023/03/13 08:41:14;;;;;;;1999.90;510.77;;;9.70;99.90;;;;;;5089539;28;20208;-52
2023/03/13 08:43:43;;;;;;;1999.90;190.97;;;9.80;99.90;;;;;;5090347;28;20277;-52
2023/03/13 08:46:11;;;;;;;1359.50;127.53;;;9.90;99.90;;;;;;5088307;28;20235;-53
2023/03/13 08:48:39;;;;;;;1274.53;160.90;;;10.00;99.90;;;;;;5090700;28;20207;-51
2023/03/13 08:51:09;;;;;;;1999.90;309.90;;;10.00;99.90;;;;;;5089799;28;20261;-53
2023/03/13 08:53:39;;;;;;;1999.90;265.47;;;10.10;99.90;;;;;;5089909;28;20365;-52
2023/03/13 08:56:09;;;;;;;1999.90;309.93;;;10.20;99.90;;;;;;5089627;28;20705;-53
2023/03/13 08:58:37;;;;;;;1999.90;273.17;;;10.30;99.90;;;;;;5090122;28;20303;-53
2023/03/13 09:01:08;;;;;;;546.47;64.57;;;10.40;99.90;;;;;;5089175;28;20211;-52
2023/03/13 09:03:36;;;;;;;1999.90;255.90;;;10.50;99.90;;;;;;5089965;28;20281;-52
2023/03/13 09:06:05;;;;;;;1288.87;146.63;;;10.50;99.90;;;;;;5089210;28;20230;-52
2023/03/13 09:08:34;;;;;;;1951.70;196.90;;;10.60;99.90;;;;;;5090165;28;20303;-52
2023/03/13 09:11:04;;;;;;;1960.60;185.30;;;10.70;99.90;;;;;;5088904;28;20639;-53
2023/03/13 09:13:37;;;;;;;1999.90;490.77;;;10.90;99.90;;;;;;5089549;28;20224;-53
2023/03/13 09:16:07;;;;;;;1999.90;426.53;;;11.00;99.90;;;;;;5089129;28;20247;-53
2023/03/13 09:18:36;;;;;;;1999.90;350.37;;;11.20;99.90;;;;;;5089668;28;20228;-53
2023/03/13 09:21:07;;;;;;;1999.90;500.67;;;11.30;99.90;;;;;;5089317;28;20204;-52
2023/03/13 09:23:36;;;;;;;1999.90;498.43;;;11.30;99.90;;;;;;5089558;28;20300;-53
2023/03/13 09:26:06;;;;;;;1999.90;511.50;;;11.30;99.90;;;;;;5080380;28;20589;-53
2023/03/13 09:28:35;;;;;;;1999.90;260.97;;;11.30;99.90;;;;;;5089414;28;20736;-53
2023/03/13 09:31:08;;;;;;;1999.90;258.60;;;11.30;99.90;;;;;;5088207;28;20224;-52
2023/03/13 09:33:36;;;;;;;1999.90;402.83;;;11.40;99.90;;;;;;5088932;28;20289;-53
2023/03/13 09:36:05;;;;;;;1999.90;523.03;;;11.40;99.90;;;;;;5088280;28;20204;-53
2023/03/13 09:38:34;;;;;;;1999.90;252.83;;;11.40;99.90;;;;;;5089165;28;20598;-54
2023/03/13 09:41:11;;;;;;;1999.90;258.40;;;11.40;99.90;;;;;;5087813;28;20258;-53
2023/03/13 09:43:47;;;;;;;1999.90;235.17;;;11.40;99.90;;;;;;5086515;28;20275;-52
2023/03/13 09:46:22;;;;;;;1999.90;360.37;;;11.50;99.90;;;;;;5084584;28;20232;-53
2023/03/13 09:48:54;;;;;;;1999.90;311.90;;;11.50;99.90;;;;;;5088050;28;20187;-54
2023/03/13 09:51:27;;;;;;;1999.90;541.40;;;11.60;99.90;;;;;;5088044;28;20617;-53
2023/03/13 09:54:01;;;;;;;1322.53;167.37;;;11.60;99.90;;;;;;5088519;28;20293;-54
2023/03/13 09:56:33;;;;;;;1673.83;210.27;;;11.70;99.90;;;;;;5088099;28;20311;-53
2023/03/13 09:59:11;;;;;;;1999.90;480.10;;;11.70;99.90;;;;;;5088084;28;20574;-53
2023/03/13 10:01:42;;;;;;;1451.57;200.93;;;11.70;99.90;;;;;;5085060;28;20286;-53
2023/03/13 10:04:24;;;;;;;1999.90;349.87;;;11.80;99.90;;;;;;5088838;28;20204;-53
2023/03/13 10:06:53;;;;;;;1999.90;257.17;;;11.90;99.90;;;;;;5087972;28;20226;-53
2023/03/13 10:09:27;;;;;;;1999.90;429.87;;;12.00;99.90;;;;;;5087817;28;20728;-51
2023/03/13 10:12:03;;;;;;;1999.90;341.83;;;12.00;99.90;;;;;;5087865;28;20559;-50
2023/03/13 10:14:41;;;;;;;1999.90;660.57;;;12.10;99.90;;;;;;5084905;28;20247;-51
2023/03/13 10:17:19;;;;;;;1999.90;458.00;;;12.10;99.90;;;;;;5076642;28;20223;-51
2023/03/13 10:19:55;;;;;;;1999.90;369.80;;;12.10;99.90;;;;;;5088365;28;20216;-51
2023/03/13 10:22:26;;;;;;;1999.90;580.40;;;12.10;99.90;;;;;;5079825;28;20251;-51
2023/03/13 10:24:58;;;;;;;1999.90;539.13;;;12.10;99.90;;;;;;5088865;28;20219;-52
2023/03/13 10:27:26;;;;;;;1999.90;708.50;;;12.10;99.90;;;;;;5087582;28;20208;-50
2023/03/13 10:29:55;;;;;;;1999.90;393.47;;;12.10;99.90;;;;;;5088530;28;20315;-50
2023/03/13 10:32:23;;;;;;;1999.90;580.30;;;12.10;99.90;;;;;;5087632;28;20334;-53
2023/03/13 10:34:59;;;;;;;1999.90;376.73;;;12.20;99.90;;;;;;5088747;28;20204;-52
2023/03/13 10:37:30;;;;;;;1999.90;570.60;;;12.20;99.90;;;;;;5087362;28;20210;-52
2023/03/13 10:40:12;;;;;;;1999.90;283.30;;;12.20;99.90;;;;;;5088637;28;20212;-51
2023/03/13 10:42:44;;;;;;;1999.90;497.20;;;12.20;99.90;;;;;;5087503;28;20342;-53
2023/03/13 10:45:18;;;;;;;1999.90;452.83;;;12.30;99.90;;;;;;5091361;28;20242;-52
2023/03/13 10:47:54;;;;;;;1999.90;329.63;;;12.20;99.90;;;;;;5091568;28;20231;-52
2023/03/13 10:50:25;;;;;;;1999.90;276.43;;;12.30;99.90;;;;;;5092500;28;20188;-51
2023/03/13 10:52:55;;;;;;;1999.90;456.53;;;12.40;99.90;;;;;;5091705;28;20238;-51
2023/03/13 10:55:24;;;;;;;1999.90;244.93;;;12.50;99.90;;;;;;5092400;28;20345;-51
2023/03/13 10:57:58;;;;;;;1999.90;363.97;;;12.70;99.90;;;;;;5091364;28;20200;-52
2023/03/13 11:00:35;;;;;;;1999.90;479.47;;;12.80;99.90;;;;;;5087588;28;20223;-52
2023/03/13 11:03:07;;;;;;;1999.90;540.67;;;12.80;99.90;;;;;;5087415;28;20257;-53
2023/03/13 11:05:41;;;;;;;1999.90;340.87;;;13.00;99.90;;;;;;5090182;28;20192;-53
2023/03/13 11:08:17;;;;;;;1999.90;650.43;;;13.00;99.90;;;;;;5073255;28;20219;-53
2023/03/13 11:10:56;;;;;;;1999.90;437.57;;;13.00;99.90;;;;;;5091980;28;20194;-53
2023/03/13 11:13:36;;;;;;;1999.90;408.67;;;12.90;99.90;;;;;;5091346;28;20731;-53
2023/03/13 11:16:18;;;;;;;1864.23;218.40;;;12.90;99.90;;;;;;5092142;28;20196;-52
2023/03/13 11:19:27;;;;;;;1999.90;378.73;;;12.80;99.90;;;;;;5090441;28;20197;-52
2023/03/13 11:22:11;;;;;;;1999.90;639.93;;;12.80;99.90;;;;;;5091912;28;20669;-53
2023/03/13 11:24:44;;;;;;;1999.90;528.37;;;12.90;99.90;;;;;;5087402;28;20235;-52
2023/03/13 11:27:24;;;;;;;1999.90;264.73;;;12.90;99.90;;;;;;5090573;28;20288;-53
2023/03/13 11:30:04;;;;;;;1999.90;357.30;;;12.90;99.90;;;;;;5088877;28;20196;-53
2023/03/13 11:32:42;;;;;;;1999.90;358.97;;;12.90;99.90;;;;;;5088612;28;20281;-53
2023/03/13 11:35:21;;;;;;;1999.90;361.47;;;12.90;99.90;;;;;;5087122;28;20216;-52
2023/03/13 11:37:53;;;;;;;1999.90;933.83;;;13.00;99.90;;;;;;5090123;28;20200;-52
2023/03/13 11:40:29;;;;;;;1999.90;314.17;;;13.30;99.90;;;;;;5089895;28;20220;-52
2023/03/13 11:43:23;;;;;;;1999.90;270.67;;;13.40;99.90;;;;;;5089931;28;20230;-53
2023/03/13 11:46:14;;;;;;;1999.90;261.87;;;13.50;99.90;;;;;;5085068;28;20296;-52
2023/03/13 11:49:19;;;;;;;1999.90;945.30;;;13.60;99.90;;;;;;5089812;28;20250;-51
2023/03/13 11:52:01;;;;;;;1999.90;453.73;;;13.60;99.90;;;;;;5077457;28;20203;-52
2023/03/13 11:55:00;;;;;;;1999.90;641.33;;;13.70;99.90;;;;;;5086188;28;20291;-53
2023/03/13 11:57:30;;;;;;;1999.90;559.57;;;13.70;99.90;;;;;;5044587;28;20291;-53
2023/03/13 12:00:16;;;;;;;1999.90;596.20;;;13.70;99.90;;;;;;5089267;28;20307;-53
2023/03/13 12:02:50;;;;;;;1999.90;463.57;;;13.60;99.90;;;;;;5090178;28;20577;-52
2023/03/13 12:05:19;;;;;;;1999.90;797.20;;;13.60;99.90;;;;;;5089492;28;20228;-53
2023/03/13 12:07:54;;;;;;;1999.90;674.23;;;13.40;99.90;;;;;;5086987;28;20204;-53
2023/03/13 12:10:27;;;;;;;1999.90;522.07;;;13.50;99.90;;;;;;5088529;28;20599;-52
2023/03/13 12:13:02;;;;;;;1999.90;683.73;;;13.40;99.90;;;;;;5089128;28;20232;-53
2023/03/13 12:15:34;;;;;;;1999.90;351.37;;;13.30;99.90;;;;;;5089718;28;20242;-53
2023/03/13 12:18:06;;;;;;;1999.90;420.00;;;13.30;99.90;;;;;;5090253;28;20618;-53
2023/03/13 12:20:42;;;;;;;1999.90;275.27;;;13.30;99.90;;;;;;5090770;28;20313;-53
2023/03/13 12:23:18;;;;;;;1999.90;475.33;;;13.30;99.90;;;;;;5090655;28;20314;-53
2023/03/13 12:25:52;;;;;;;1999.90;674.97;;;13.20;99.90;;;;;;5090576;28;20200;-53